Time;durP1;ratioP1;P1;durP2;ratioP2;P2;SDS_P1;SDS_P2;PMS_P1;PMS_P2;Temp;Humidity;BMP_temperature;BMP_pressure;BME280_temperature;BME280_humidity;BME280_pressure;Samples;Min_cycle;Max_cycle;Signal;HPM_P1;HPM_P2
2021/12/08 00:00:28;;;;;;;;;;;;;;;2.36;73.88;97774.47;4956137;28;20353;-82
2021/12/08 00:02:54;;;;;;;;;;;;;;;2.36;73.74;97769.25;4973687;28;19953;-85
2021/12/08 00:05:19;;;;;;;;;;;;;;;2.39;73.52;97763.06;4955999;28;20040;-83
2021/12/08 00:07:47;;;;;;;;;;;;;;;2.44;73.79;97771.53;4973395;28;19914;-82
2021/12/08 00:10:29;;;;;;;;;;;;;;;2.43;73.41;97767.25;4972052;28;19941;-85
2021/12/08 00:13:05;;;;;;;;;;;;;;;2.46;73.44;97764.50;4973298;28;19918;-82
2021/12/08 00:15:40;;;;;;;;;;;;;;;2.47;72.95;97776.66;4972788;28;20000;-83
2021/12/08 04:16:58;;;;;;;;;;;;;;;1.69;95.97;97831.13;5709936;23;19938;-83
2021/12/08 04:19:24;;;;;;;;;;;;;;;2.05;98.83;97829.78;4951958;28;19976;-84
2021/12/08 04:21:51;;;;;;;;;;;;;;;2.20;100.00;97823.91;4955264;28;19918;-83
2021/12/08 04:24:17;;;;;;;;;;;;;;;2.33;100.00;97832.09;4955813;28;19922;-83
2021/12/08 04:26:50;;;;;;;;;;;;;;;2.31;100.00;97839.16;4973051;28;19918;-83
2021/12/08 04:29:17;;;;;;;;;;;;;;;2.31;100.00;97826.97;4954920;28;20032;-82
2021/12/08 04:31:43;;;;;;;;;;;;;;;2.39;100.00;97831.00;4970411;28;19918;-83
2021/12/08 04:34:14;;;;;;;;;;;;;;;2.48;100.00;97838.50;4955763;28;19926;-83
2021/12/08 04:36:44;;;;;;;;;;;;;;;2.44;100.00;97831.66;4972765;28;19918;-83
2021/12/08 04:39:14;;;;;;;;;;;;;;;2.45;100.00;97830.78;4972567;28;19928;-83
2021/12/08 04:41:45;;;;;;;;;;;;;;;2.42;100.00;97831.72;4972733;28;19929;-83
2021/12/08 04:44:26;;;;;;;;;;;;;;;2.52;100.00;97833.06;4955222;28;20009;-83
2021/12/08 05:00:44;;;;;;;;;;;;;;;2.54;100.00;97838.25;4972837;28;20289;-85
2021/12/08 05:08:41;;;;;;;;;;;;;;;2.55;98.58;97845.16;4971912;28;19968;-86
2021/12/08 05:11:24;;;;;;;;;;;;;;;2.82;99.56;97850.16;4955253;28;19934;-85
2021/12/08 05:13:51;;;;;;;;;;;;;;;2.96;100.00;97849.56;4954691;28;19968;-87
2021/12/08 05:16:17;;;;;;;;;;;;;;;2.89;100.00;97856.84;4971629;28;19958;-86
2021/12/08 05:18:45;;;;;;;;;;;;;;;2.73;100.00;97852.25;4955118;28;19988;-87
2021/12/08 05:21:14;;;;;;;;;;;;;;;2.79;100.00;97839.81;4954645;28;19953;-87
2021/12/08 05:23:45;;;;;;;;;;;;;;;2.76;100.00;97837.31;4955183;28;19924;-85
2021/12/08 05:26:13;;;;;;;;;;;;;;;2.76;100.00;97835.59;4970425;28;19918;-84
2021/12/08 05:28:39;;;;;;;;;;;;;;;2.68;100.00;97842.88;4955131;28;19946;-87
2021/12/08 05:31:10;;;;;;;;;;;;;;;2.72;99.57;97823.53;4953932;28;19918;-85
2021/12/08 05:33:36;;;;;;;;;;;;;;;2.62;98.87;97817.84;4975406;28;20432;-86
2021/12/08 05:36:02;;;;;;;;;;;;;;;2.60;98.23;97839.72;4976020;28;19922;-85
2021/12/08 05:38:28;;;;;;;;;;;;;;;2.60;97.64;97840.59;4958662;28;20350;-84
2021/12/08 05:41:07;;;;;;;;;;;;;;;2.64;97.51;97838.72;4958683;28;20012;-84
2021/12/08 05:43:32;;;;;;;;;;;;;;;2.53;96.92;97839.13;4974973;28;19922;-85
2021/12/08 05:45:58;;;;;;;;;;;;;;;2.53;96.79;97839.13;4974500;28;20388;-87
2021/12/08 05:48:23;;;;;;;;;;;;;;;2.52;96.46;97833.06;4975694;28;19922;-86
2021/12/08 05:50:51;;;;;;;;;;;;;;;2.57;95.83;97838.13;4975441;28;19918;-84
2021/12/08 05:53:16;;;;;;;;;;;;;;;2.52;95.17;97842.66;4975704;28;19922;-84
2021/12/08 05:55:43;;;;;;;;;;;;;;;2.53;94.37;97832.13;4957464;28;20013;-85
2021/12/08 05:58:08;;;;;;;;;;;;;;;2.49;93.56;97832.31;4975590;28;19925;-84
2021/12/08 06:00:40;;;;;;;;;;;;;;;2.50;93.03;97839.25;4975559;28;19922;-84
2021/12/08 06:03:05;;;;;;;;;;;;;;;2.48;92.48;97843.72;4974158;28;19933;-86
2021/12/08 08:53:18;;;;;;;;;;;;;;;2.35;82.08;97909.56;4957544;28;19930;-83
2021/12/08 08:55:55;;;;;;;;;;;;;;;2.35;82.10;97920.00;4955453;28;20009;-84
2021/12/08 08:58:22;;;;;;;;;;;;;;;2.44;81.78;97936.25;4955004;28;19922;-85
2021/12/08 09:00:53;;;;;;;;;;;;;;;6.06;80.79;97923.84;4955155;28;19922;-86
2021/12/08 09:03:21;;;;;;;;;;;;;;;5.88;81.80;97929.13;4954966;28;19930;-85
2021/12/08 09:05:51;;;;;;;;;;;;;;;6.30;81.55;97925.16;4970834;28;19925;-85
2021/12/08 09:08:17;;;;;;;;;;;;;;;6.42;81.27;97914.88;4957235;28;19936;-83
2021/12/08 09:10:48;;;;;;;;;;;;;;;5.15;82.25;97920.66;4976455;28;19922;-83
2021/12/08 09:13:26;;;;;;;;;;;;;;;4.54;83.14;97931.47;4974833;28;20269;-83
2021/12/08 09:15:54;;;;;;;;;;;;;;;4.26;82.99;97936.31;4976225;28;19922;-84
2021/12/08 09:18:21;;;;;;;;;;;;;;;4.11;82.60;97953.63;4976277;28;19918;-84
2021/12/08 09:20:54;;;;;;;;;;;;;;;4.02;82.35;97954.91;4974254;28;19998;-82
2021/12/08 09:23:24;;;;;;;;;;;;;;;3.94;81.86;97951.75;4975663;28;20053;-82
2021/12/08 09:25:58;;;;;;;;;;;;;;;3.88;81.41;97957.25;4976246;28;19922;-82
2021/12/08 09:28:29;;;;;;;;;;;;;;;3.85;80.90;97960.88;4975981;28;20369;-83
2021/12/08 09:31:01;;;;;;;;;;;;;;;3.84;80.49;97963.56;4958674;28;20324;-82
2021/12/08 09:33:28;;;;;;;;;;;;;;;3.80;80.27;97961.09;4975850;28;19945;-83
2021/12/08 09:36:07;;;;;;;;;;;;;;;3.82;80.03;97964.47;4974780;28;20005;-83
2021/12/08 09:38:37;;;;;;;;;;;;;;;3.80;79.67;97966.34;4958258;28;20285;-83
2021/12/08 09:41:14;;;;;;;;;;;;;;;3.80;79.55;97968.94;4975977;28;20346;-83
2021/12/08 09:43:47;;;;;;;;;;;;;;;3.79;79.58;97959.38;4958247;28;20013;-82
2021/12/08 09:46:16;;;;;;;;;;;;;;;3.77;79.20;97950.75;4975357;28;20086;-83
2021/12/08 09:48:42;;;;;;;;;;;;;;;3.78;79.02;97952.47;4975311;28;20296;-82
2021/12/08 09:51:08;;;;;;;;;;;;;;;3.79;78.79;97946.28;4974343;28;19966;-83
2021/12/08 09:53:34;;;;;;;;;;;;;;;3.82;78.75;97951.38;4975755;28;20012;-83
2021/12/08 09:56:00;;;;;;;;;;;;;;;3.82;78.71;97947.91;4974807;28;19925;-82
2021/12/08 09:58:25;;;;;;;;;;;;;;;3.80;78.68;97940.13;4975638;28;19922;-82
2021/12/08 10:00:53;;;;;;;;;;;;;;;3.87;78.69;97934.63;4975631;28;20411;-82
2021/12/08 10:03:19;;;;;;;;;;;;;;;3.85;78.68;97926.00;4975264;28;19918;-82
2021/12/08 10:05:44;;;;;;;;;;;;;;;3.85;78.49;97932.06;4974856;28;19925;-83
2021/12/08 10:08:10;;;;;;;;;;;;;;;3.82;78.49;97925.19;4974900;28;20396;-82
2021/12/08 10:10:37;;;;;;;;;;;;;;;3.88;78.53;97931.06;4975326;28;19921;-84
2021/12/08 10:13:02;;;;;;;;;;;;;;;3.86;78.39;97927.66;4957498;28;19921;-83
2021/12/08 10:15:28;;;;;;;;;;;;;;;3.87;78.36;97930.22;4957447;28;20428;-83
2021/12/08 10:17:55;;;;;;;;;;;;;;;3.90;78.36;97943.19;4974729;28;19922;-83
2021/12/08 10:20:25;;;;;;;;;;;;;;;3.90;78.20;97942.34;4957278;28;19915;-83
2021/12/08 10:23:12;;;;;;;;;;;;;;;3.91;78.01;97946.66;4973056;28;19918;-82
2021/12/08 10:25:40;;;;;;;;;;;;;;;3.92;78.05;97967.53;4975137;28;19925;-83
2021/12/08 10:28:17;;;;;;;;;;;;;;;3.93;77.70;97964.00;4973456;28;19954;-82
2021/12/08 10:30:53;;;;;;;;;;;;;;;3.94;78.04;97960.47;4974413;28;19922;-84
2021/12/08 10:39:02;;;;;;;;;;;;;;;3.98;77.97;97948.94;4974996;28;20012;-82
2021/12/08 10:41:41;;;;;;;;;;;;;;;4.00;77.98;97948.84;4974813;28;20662;-82
2021/12/08 10:44:06;;;;;;;;;;;;;;;4.00;77.94;97951.47;4974763;28;19922;-83
2021/12/08 10:46:33;;;;;;;;;;;;;;;4.02;77.99;97947.03;4974701;28;20434;-82
2021/12/08 10:49:13;;;;;;;;;;;;;;;4.07;77.83;97945.06;4974823;28;20429;-82
2021/12/08 10:54:31;;;;;;;;;;;;;;;4.12;77.93;97956.16;4974563;28;19976;-83
2021/12/08 10:56:58;;;;;;;;;;;;;;;4.13;77.81;97954.38;4974481;28;19965;-83
2021/12/08 10:59:25;;;;;;;;;;;;;;;4.14;77.95;97956.94;4974371;28;20369;-82
2021/12/08 11:01:51;;;;;;;;;;;;;;;4.14;77.96;97956.94;4974588;28;19940;-82
2021/12/08 11:04:17;;;;;;;;;;;;;;;4.14;77.96;97959.56;4974261;28;19926;-82
2021/12/08 11:06:43;;;;;;;;;;;;;;;4.13;77.77;97957.88;4973033;28;19922;-83
2021/12/08 11:09:14;;;;;;;;;;;;;;;4.18;77.74;97955.06;4974348;28;19955;-83
2021/12/08 11:11:43;;;;;;;;;;;;;;;4.21;77.68;97961.91;4974273;28;19922;-83
2021/12/08 11:14:10;;;;;;;;;;;;;;;4.18;77.62;97958.50;4973961;28;19918;-82
2021/12/08 11:16:37;;;;;;;;;;;;;;;4.16;77.39;97960.38;4955802;28;19918;-82
2021/12/08 11:19:06;;;;;;;;;;;;;;;4.18;77.51;97966.38;4974271;28;20353;-82
2021/12/08 11:21:36;;;;;;;;;;;;;;;4.19;77.51;97970.69;4972619;28;19929;-83
2021/12/08 11:24:10;;;;;;;;;;;;;;;4.23;77.49;97983.66;4956233;28;19918;-82
2021/12/08 11:26:41;;;;;;;;;;;;;;;4.23;77.44;97967.91;4972568;28;20197;-82
2021/12/08 11:29:12;;;;;;;;;;;;;;;4.26;77.53;97962.53;4971296;28;19965;-82
2021/12/08 11:31:40;;;;;;;;;;;;;;;4.27;77.54;97970.34;4973063;28;19985;-82
2021/12/08 11:34:12;;;;;;;;;;;;;;;4.28;77.54;97968.59;4972220;28;20285;-83
2021/12/08 11:36:38;;;;;;;;;;;;;;;4.28;77.43;97969.41;4971649;28;19922;-83
2021/12/08 11:39:23;;;;;;;;;;;;;;;4.27;77.20;97961.63;4973667;28;19925;-84
2021/12/08 11:41:52;;;;;;;;;;;;;;;4.30;77.38;97970.19;4973818;28;19926;-82
2021/12/08 11:44:17;;;;;;;;;;;;;;;4.31;77.61;97965.81;4971430;28;19981;-82
2021/12/08 11:46:45;;;;;;;;;;;;;;;4.31;77.52;97969.28;4971907;28;20373;-82
2021/12/08 11:49:13;;;;;;;;;;;;;;;4.34;77.66;97968.28;4973338;28;19928;-83
2021/12/08 11:51:44;;;;;;;;;;;;;;;4.36;77.63;97972.53;4972148;28;19919;-82
2021/12/08 11:54:22;;;;;;;;;;;;;;;4.37;77.82;97976.00;4972830;28;20021;-83
2021/12/08 11:56:47;;;;;;;;;;;;;;;4.39;77.88;97978.56;4973551;28;19926;-83
2021/12/08 11:59:14;;;;;;;;;;;;;;;4.39;78.06;97981.16;4973784;28;19922;-83
2021/12/08 12:01:39;;;;;;;;;;;;;;;4.39;78.14;97979.41;4972425;28;20281;-83
2021/12/08 12:04:06;;;;;;;;;;;;;;;4.39;78.13;97976.81;4973423;28;19925;-83
2021/12/08 12:06:32;;;;;;;;;;;;;;;4.41;78.22;97977.56;4972125;28;19918;-83
2021/12/08 12:08:59;;;;;;;;;;;;;;;4.41;78.17;97972.31;4973210;28;19922;-83
2021/12/08 12:11:26;;;;;;;;;;;;;;;4.43;78.35;97986.22;4973238;28;19922;-82
2021/12/08 12:13:52;;;;;;;;;;;;;;;4.46;78.45;97980.81;4973307;28;20379;-83
2021/12/08 12:16:17;;;;;;;;;;;;;;;4.47;78.28;97974.66;4973017;28;19918;-83
2021/12/08 12:18:43;;;;;;;;;;;;;;;4.47;78.39;97965.97;4973216;28;19929;-83
2021/12/08 12:21:14;;;;;;;;;;;;;;;4.48;78.46;97954.53;4954259;28;20029;-83
2021/12/08 12:23:59;;;;;;;;;;;;;;;4.51;78.44;97960.47;4954879;28;19925;-83
2021/12/08 12:26:37;;;;;;;;;;;;;;;4.52;78.44;97956.94;4955509;28;19918;-83
2021/12/08 12:29:05;;;;;;;;;;;;;;;4.55;78.56;97954.16;4971588;28;20559;-83
2021/12/08 12:31:30;;;;;;;;;;;;;;;4.55;78.64;97948.91;4955710;28;19972;-83
2021/12/08 12:33:56;;;;;;;;;;;;;;;4.54;78.61;97947.19;4973057;28;19922;-83
2021/12/08 12:36:21;;;;;;;;;;;;;;;4.59;78.57;97933.03;4971848;28;19966;-83
2021/12/08 12:38:47;;;;;;;;;;;;;;;4.57;78.36;97935.72;4973286;28;19922;-83
2021/12/08 12:41:27;;;;;;;;;;;;;;;4.60;78.41;97940.00;4956770;28;20353;-83
2021/12/08 12:44:11;;;;;;;;;;;;;;;4.62;78.55;97935.50;4976975;28;19941;-83
2021/12/08 12:46:36;;;;;;;;;;;;;;;4.65;78.53;97932.75;4976900;28;19930;-83
2021/12/08 12:49:19;;;;;;;;;;;;;;;4.65;78.40;97932.75;4959394;28;19980;-83
2021/12/08 12:52:02;;;;;;;;;;;;;;;4.72;78.99;97928.88;4957957;28;19930;-83
2021/12/08 12:54:27;;;;;;;;;;;;;;;4.88;80.04;97923.72;4976710;28;20025;-83
2021/12/08 12:56:54;;;;;;;;;;;;;;;4.98;81.13;97934.63;4976024;28;20005;-83
2021/12/08 12:59:22;;;;;;;;;;;;;;;5.03;82.38;97927.41;4976769;28;20357;-83
2021/12/08 13:02:07;;;;;;;;;;;;;;;5.03;83.54;97922.16;4958792;28;19925;-82
2021/12/08 13:04:35;;;;;;;;;;;;;;;5.00;84.43;97923.13;4976553;28;19998;-82
2021/12/08 13:07:04;;;;;;;;;;;;;;;4.97;85.05;97923.28;4975427;28;19965;-83
2021/12/08 13:09:53;;;;;;;;;;;;;;;4.92;85.57;97930.53;4958963;28;20411;-83
2021/12/08 13:12:20;;;;;;;;;;;;;;;4.86;86.07;97928.22;4976433;28;19949;-84
2021/12/08 13:14:47;;;;;;;;;;;;;;;4.77;86.69;97929.53;4975631;28;19953;-83
2021/12/08 13:17:24;;;;;;;;;;;;;;;4.71;86.77;97940.31;4976229;28;19962;-83
2021/12/08 13:19:57;;;;;;;;;;;;;;;4.64;86.99;97931.03;4975917;28;20009;-83
2021/12/08 13:22:45;;;;;;;;;;;;;;;4.59;87.92;97938.28;4974743;28;19969;-83
2021/12/08 13:25:23;;;;;;;;;;;;;;;4.62;88.84;97938.13;4976250;28;19989;-83
2021/12/08 13:27:48;;;;;;;;;;;;;;;4.65;90.34;97938.00;4975832;28;19926;-83
2021/12/08 13:30:15;;;;;;;;;;;;;;;4.75;91.70;97933.97;4958571;28;19925;-85
2021/12/08 13:32:47;;;;;;;;;;;;;;;4.80;93.69;97937.22;4976046;28;19922;-83
2021/12/08 13:35:30;;;;;;;;;;;;;;;4.91;97.27;97941.97;4976029;28;19966;-83
2021/12/08 13:37:56;;;;;;;;;;;;;;;5.06;100.00;97946.47;4974800;28;19918;-83
2021/12/08 13:40:38;;;;;;;;;;;;;;;5.21;100.00;97941.38;4975978;28;20353;-83
2021/12/08 13:43:05;;;;;;;;;;;;;;;5.34;100.00;97944.22;4975725;28;19926;-83
2021/12/08 13:45:40;;;;;;;;;;;;;;;5.37;100.00;97944.91;4975888;28;19918;-83
2021/12/08 13:48:05;;;;;;;;;;;;;;;5.46;100.00;97940.97;4975843;28;19919;-83
2021/12/08 13:50:33;;;;;;;;;;;;;;;5.56;100.00;97947.44;4975782;28;19929;-83
2021/12/08 13:53:00;;;;;;;;;;;;;;;5.62;100.00;97948.91;4971663;28;19930;-83
2021/12/08 13:55:27;;;;;;;;;;;;;;;5.63;100.00;97947.97;4975822;28;20009;-83
2021/12/08 13:58:14;;;;;;;;;;;;;;;5.71;100.00;97961.59;4975602;28;19933;-83
2021/12/08 14:00:44;;;;;;;;;;;;;;;5.75;100.00;97957.00;4965334;28;20012;-83
2021/12/08 14:03:15;;;;;;;;;;;;;;;5.77;100.00;97958.59;4975726;28;19922;-83
2021/12/08 14:05:59;;;;;;;;;;;;;;;5.87;100.00;97953.75;4957862;28;19918;-83
2021/12/08 14:08:25;;;;;;;;;;;;;;;5.90;100.00;97956.19;4958015;28;20289;-83
2021/12/08 14:10:58;;;;;;;;;;;;;;;5.95;100.00;97951.56;4973766;28;19929;-83
2021/12/08 14:13:26;;;;;;;;;;;;;;;5.91;100.00;97947.38;4957787;28;20012;-83
2021/12/08 14:15:53;;;;;;;;;;;;;;;5.98;100.00;97951.41;4975285;28;19922;-83
2021/12/08 14:18:21;;;;;;;;;;;;;;;6.03;100.00;97951.19;4974439;28;19961;-83
2021/12/08 14:20:49;;;;;;;;;;;;;;;6.05;100.00;97956.31;4974721;28;19918;-83
2021/12/08 14:23:15;;;;;;;;;;;;;;;6.06;100.00;97947.50;4974729;28;19966;-83
2021/12/08 14:25:46;;;;;;;;;;;;;;;6.02;100.00;97959.16;4974949;28;19984;-83
2021/12/08 14:28:26;;;;;;;;;;;;;;;5.27;100.00;97955.03;4974561;28;19922;-82
2021/12/08 14:30:52;;;;;;;;;;;;;;;4.87;100.00;97962.25;4974456;28;19928;-82
2021/12/08 14:33:22;;;;;;;;;;;;;;;4.65;100.00;97958.97;4975037;28;19918;-83
2021/12/08 14:35:54;;;;;;;;;;;;;;;4.40;100.00;97959.28;4974363;28;19918;-83
2021/12/08 14:38:19;;;;;;;;;;;;;;;4.39;100.00;97953.19;4974050;28;19918;-82
2021/12/08 14:40:45;;;;;;;;;;;;;;;4.28;98.48;97952.84;4974805;28;19944;-82
2021/12/08 14:43:22;;;;;;;;;;;;;;;4.25;96.82;97947.75;4974784;28;20040;-82
2021/12/08 14:45:47;;;;;;;;;;;;;;;4.26;94.80;97952.06;4974639;28;19993;-82
2021/12/08 14:48:13;;;;;;;;;;;;;;;4.10;93.70;97949.28;4957122;28;20021;-83
2021/12/08 14:50:39;;;;;;;;;;;;;;;4.10;92.88;97954.53;4974252;28;19918;-83
2021/12/08 14:53:12;;;;;;;;;;;;;;;3.97;92.24;97957.72;4973262;28;19922;-83
2021/12/08 14:55:37;;;;;;;;;;;;;;;4.04;91.66;97958.28;4974545;28;19918;-83
2021/12/08 14:58:03;;;;;;;;;;;;;;;3.99;90.85;97949.78;4974644;28;20387;-83
2021/12/08 15:00:29;;;;;;;;;;;;;;;3.86;90.44;97959.97;4974404;28;19918;-83
2021/12/08 15:02:58;;;;;;;;;;;;;;;3.92;90.14;97950.97;4956778;28;19922;-82
2021/12/08 15:05:23;;;;;;;;;;;;;;;3.79;89.44;97948.91;4974400;28;20374;-82
2021/12/08 15:07:49;;;;;;;;;;;;;;;3.79;88.67;97951.53;4972841;28;19925;-83
2021/12/08 15:10:16;;;;;;;;;;;;;;;3.85;88.57;97952.19;4974385;28;19922;-83
2021/12/08 15:12:43;;;;;;;;;;;;;;;3.77;88.53;97955.16;4974227;28;19922;-83
2021/12/08 15:15:19;;;;;;;;;;;;;;;3.76;88.04;97954.28;4974493;28;19926;-83
2021/12/08 15:17:45;;;;;;;;;;;;;;;3.73;87.48;97956.19;4973381;28;20281;-83
2021/12/08 15:20:12;;;;;;;;;;;;;;;3.79;86.92;97964.63;4973853;28;19918;-83
2021/12/08 15:22:42;;;;;;;;;;;;;;;3.73;87.13;97964.88;4972901;28;20383;-83
2021/12/08 15:25:08;;;;;;;;;;;;;;;3.67;86.34;97965.19;4957274;28;20020;-83
2021/12/08 15:27:38;;;;;;;;;;;;;;;3.64;86.57;97962.69;4974102;28;20013;-83
2021/12/08 15:30:04;;;;;;;;;;;;;;;3.66;86.65;97963.47;4973781;28;19922;-83
2021/12/08 15:32:29;;;;;;;;;;;;;;;3.60;86.43;97968.97;4974187;28;19925;-83
2021/12/08 15:35:25;;;;;;;;;;;;;;;3.66;86.06;97973.94;4973883;28;19922;-83
2021/12/08 15:37:55;;;;;;;;;;;;;;;3.51;85.63;97975.47;4956305;28;20342;-83
2021/12/08 15:40:41;;;;;;;;;;;;;;;3.55;85.64;97978.81;4973821;28;19922;-83
2021/12/08 15:43:08;;;;;;;;;;;;;;;3.47;85.94;97989.59;4956493;28;20510;-83
2021/12/08 15:45:35;;;;;;;;;;;;;;;3.48;85.53;97990.44;4973799;28;19970;-82
2021/12/08 15:48:00;;;;;;;;;;;;;;;3.40;85.41;97989.00;4955953;28;19930;-81
2021/12/08 15:50:26;;;;;;;;;;;;;;;3.46;85.66;97987.88;4955959;28;19922;-82
2021/12/08 15:52:52;;;;;;;;;;;;;;;3.42;85.56;97984.56;4967381;28;20287;-82
2021/12/08 15:55:22;;;;;;;;;;;;;;;3.45;85.14;97991.44;4954202;29;19922;-82
2021/12/08 15:57:57;;;;;;;;;;;;;;;3.39;85.01;97989.91;4954156;28;20431;-83
2021/12/08 16:00:33;;;;;;;;;;;;;;;3.38;84.58;97990.84;4952930;29;19923;-83
2021/12/08 16:02:58;;;;;;;;;;;;;;;3.45;84.43;97994.06;4954046;28;19930;-83
2021/12/08 16:05:23;;;;;;;;;;;;;;;3.45;84.91;97996.69;4954126;29;19918;-82
2021/12/08 16:07:49;;;;;;;;;;;;;;;3.31;84.35;98001.66;4952898;29;19926;-83
2021/12/08 16:10:15;;;;;;;;;;;;;;;3.34;84.58;98009.38;4953856;29;19950;-83
2021/12/08 16:12:41;;;;;;;;;;;;;;;3.34;84.17;98010.22;4954142;29;19929;-83
2021/12/08 16:15:06;;;;;;;;;;;;;;;3.33;84.16;98010.28;4952366;28;20290;-83
2021/12/08 16:17:32;;;;;;;;;;;;;;;3.26;84.49;98014.91;4953760;28;20459;-83
2021/12/08 16:20:16;;;;;;;;;;;;;;;3.34;84.27;98012.00;4953067;29;20013;-83
2021/12/08 16:22:42;;;;;;;;;;;;;;;3.25;83.80;98021.06;4952641;28;19962;-83
2021/12/08 16:25:09;;;;;;;;;;;;;;;3.24;83.76;98016.75;4953939;28;19982;-83
2021/12/08 16:27:34;;;;;;;;;;;;;;;3.21;83.92;98020.34;4953959;29;19918;-82
2021/12/08 16:30:00;;;;;;;;;;;;;;;3.25;83.51;98028.91;4953891;28;19929;-83
2021/12/08 16:32:27;;;;;;;;;;;;;;;3.20;83.69;98031.72;4953554;29;20293;-83
2021/12/08 16:34:54;;;;;;;;;;;;;;;3.24;83.61;98035.09;4953733;29;19923;-83
2021/12/08 16:37:19;;;;;;;;;;;;;;;3.22;83.66;98032.53;4951828;29;20378;-83
2021/12/08 16:45:06;;;;;;;;;;;;;;;3.06;82.83;98042.78;4953912;29;19995;-83
2021/12/08 16:47:32;;;;;;;;;;;;;;;3.13;82.79;98040.75;4953816;29;19922;-83
2021/12/08 16:49:57;;;;;;;;;;;;;;;3.07;82.83;98048.84;4953647;28;19918;-83
2021/12/08 16:52:25;;;;;;;;;;;;;;;3.16;82.61;98058.06;4956845;28;19930;-83
2021/12/08 16:54:51;;;;;;;;;;;;;;;3.07;82.34;98049.69;4972799;28;20378;-83
2021/12/08 16:57:17;;;;;;;;;;;;;;;3.11;82.57;98047.78;4972733;28;20388;-84
2021/12/08 16:59:42;;;;;;;;;;;;;;;3.02;82.40;98045.56;4973117;28;19926;-83
2021/12/08 17:02:07;;;;;;;;;;;;;;;3.09;81.87;98050.50;4972612;28;19918;-83
2021/12/08 17:04:33;;;;;;;;;;;;;;;3.08;82.16;98048.78;4972853;28;19922;-84
2021/12/08 17:06:58;;;;;;;;;;;;;;;3.04;81.94;98048.97;4971395;28;19933;-83
2021/12/08 17:09:23;;;;;;;;;;;;;;;2.99;81.73;98054.38;4972842;28;19923;-83
2021/12/08 17:11:49;;;;;;;;;;;;;;;3.07;81.81;98059.31;4973057;28;20025;-83
2021/12/08 17:14:14;;;;;;;;;;;;;;;3.01;81.62;98049.94;4972588;28;19922;-82
2021/12/08 17:16:40;;;;;;;;;;;;;;;3.02;81.20;98058.66;4972294;28;19922;-83
2021/12/08 17:19:09;;;;;;;;;;;;;;;3.04;81.35;98060.28;4972564;28;20469;-83
2021/12/08 17:21:34;;;;;;;;;;;;;;;3.01;81.44;98064.78;4970707;28;20292;-83
2021/12/08 17:23:59;;;;;;;;;;;;;;;3.00;81.09;98061.31;4972437;28;19918;-83
2021/12/08 17:26:26;;;;;;;;;;;;;;;2.98;81.18;98054.44;4972525;28;19922;-83
2021/12/08 17:28:51;;;;;;;;;;;;;;;2.89;80.58;98060.91;4957222;28;19925;-83
2021/12/08 17:31:17;;;;;;;;;;;;;;;2.95;80.89;98076.34;4975930;28;20285;-83
2021/12/08 17:33:43;;;;;;;;;;;;;;;2.87;80.64;98081.88;4976090;28;19922;-83
2021/12/08 17:36:09;;;;;;;;;;;;;;;2.93;80.39;98078.16;4972843;28;19922;-83
2021/12/08 17:38:35;;;;;;;;;;;;;;;2.88;80.14;98080.13;4975940;28;19918;-83
2021/12/08 17:41:02;;;;;;;;;;;;;;;2.89;80.44;98073.97;4975809;28;20009;-83
2021/12/08 17:43:29;;;;;;;;;;;;;;;2.85;80.05;98075.84;4975766;28;19919;-83
2021/12/08 17:45:54;;;;;;;;;;;;;;;2.88;80.19;98087.97;4974880;28;19918;-83
2021/12/08 17:48:20;;;;;;;;;;;;;;;2.76;80.11;98083.19;4975712;28;19921;-83
2021/12/08 17:50:45;;;;;;;;;;;;;;;2.81;80.13;98076.00;4975921;28;20575;-83
2021/12/08 17:53:12;;;;;;;;;;;;;;;2.93;80.07;98085.16;4956626;28;19922;-83
2021/12/08 17:55:37;;;;;;;;;;;;;;;2.89;79.88;98089.69;4975738;28;19918;-83
2021/12/08 17:58:04;;;;;;;;;;;;;;;2.78;79.64;98094.47;4975402;28;19937;-83
2021/12/08 18:00:32;;;;;;;;;;;;;;;2.79;79.82;98094.38;4957987;28;19922;-83
2021/12/08 18:02:57;;;;;;;;;;;;;;;2.82;79.67;98096.03;4974830;28;20008;-83
2021/12/08 18:05:23;;;;;;;;;;;;;;;2.84;80.04;98102.94;4975617;28;19928;-83
2021/12/08 18:07:48;;;;;;;;;;;;;;;2.76;79.34;98098.88;4974266;28;19925;-83
2021/12/08 18:10:15;;;;;;;;;;;;;;;2.76;79.45;98094.53;4975662;28;19918;-82
2021/12/08 18:12:40;;;;;;;;;;;;;;;2.78;79.33;98100.53;4975499;28;19914;-82
2021/12/08 18:15:07;;;;;;;;;;;;;;;2.76;78.92;98098.88;4974368;28;20355;-82
2021/12/08 18:17:37;;;;;;;;;;;;;;;2.80;79.03;98100.50;4975331;28;20417;-83
2021/12/08 18:20:03;;;;;;;;;;;;;;;2.77;78.75;98101.44;4975193;28;19945;-83
2021/12/08 18:22:29;;;;;;;;;;;;;;;2.77;78.86;98100.59;4973993;28;19976;-83
2021/12/08 18:24:54;;;;;;;;;;;;;;;2.70;78.50;98103.44;4957423;28;20284;-83
2021/12/08 18:27:19;;;;;;;;;;;;;;;2.80;78.67;98105.72;4975136;28;19969;-83
2021/12/08 18:29:44;;;;;;;;;;;;;;;2.76;78.53;98111.97;4975064;28;19918;-83
2021/12/08 18:32:09;;;;;;;;;;;;;;;2.71;78.33;98119.97;4974221;28;20019;-83
2021/12/08 18:34:35;;;;;;;;;;;;;;;2.76;78.59;98117.19;4975150;28;20370;-83
2021/12/08 18:37:03;;;;;;;;;;;;;;;2.66;78.79;98122.78;4973949;28;19922;-83
2021/12/08 18:39:29;;;;;;;;;;;;;;;2.70;78.39;98132.22;4974642;28;19973;-82
2021/12/08 18:41:57;;;;;;;;;;;;;;;2.72;78.58;98129.53;4974814;28;19921;-83
2021/12/08 18:44:22;;;;;;;;;;;;;;;2.71;78.36;98126.09;4974657;28;19957;-83
2021/12/08 18:46:48;;;;;;;;;;;;;;;2.69;78.37;98140.13;4974755;28;20621;-82
2021/12/08 18:49:13;;;;;;;;;;;;;;;2.68;78.27;98141.91;4974696;28;19930;-83
2021/12/08 18:51:42;;;;;;;;;;;;;;;2.70;78.30;98147.91;4955846;28;20004;-83
2021/12/08 18:54:09;;;;;;;;;;;;;;;2.68;77.80;98147.13;4974414;28;19965;-83
2021/12/08 18:56:34;;;;;;;;;;;;;;;2.71;77.75;98151.38;4974343;28;19922;-83
2021/12/08 18:59:00;;;;;;;;;;;;;;;2.74;77.96;98151.25;4974353;28;19925;-83
2021/12/08 19:01:28;;;;;;;;;;;;;;;2.72;78.06;98159.16;4974527;28;19973;-83
2021/12/08 19:03:54;;;;;;;;;;;;;;;2.70;78.10;98160.16;4974263;28;19922;-82
2021/12/08 19:06:20;;;;;;;;;;;;;;;2.70;77.75;98160.16;4972958;28;19922;-83
2021/12/08 19:08:46;;;;;;;;;;;;;;;2.71;77.59;98165.31;4974188;28;19929;-82
2021/12/08 19:11:11;;;;;;;;;;;;;;;2.75;77.53;98167.84;4974106;28;20017;-82
2021/12/08 19:13:37;;;;;;;;;;;;;;;2.68;77.25;98173.28;4974327;28;20009;-82
2021/12/08 19:16:03;;;;;;;;;;;;;;;2.67;77.37;98171.56;4974131;28;20001;-83
2021/12/08 19:18:30;;;;;;;;;;;;;;;2.73;77.24;98168.72;4971982;28;19925;-83
2021/12/08 19:20:56;;;;;;;;;;;;;;;2.70;77.26;98175.84;4972932;28;20020;-83
2021/12/08 19:23:23;;;;;;;;;;;;;;;2.70;77.15;98186.31;4973967;28;19970;-82
2021/12/08 19:25:51;;;;;;;;;;;;;;;2.75;77.21;98188.75;4974108;28;19973;-82
2021/12/08 19:28:16;;;;;;;;;;;;;;;2.67;77.08;98187.25;4956302;28;19915;-83
2021/12/08 19:30:42;;;;;;;;;;;;;;;2.69;77.06;98201.13;4973203;28;19918;-83
2021/12/08 19:33:09;;;;;;;;;;;;;;;2.69;76.82;98195.88;4973834;28;19914;-82
2021/12/08 19:35:36;;;;;;;;;;;;;;;2.69;76.78;98192.44;4956221;28;19929;-82
2021/12/08 19:38:02;;;;;;;;;;;;;;;2.70;76.61;98197.59;4972595;28;19925;-83
2021/12/08 19:40:28;;;;;;;;;;;;;;;2.67;76.65;98196.88;4973744;28;19968;-83
2021/12/08 19:42:54;;;;;;;;;;;;;;;2.68;76.63;98194.22;4973788;28;19957;-82
2021/12/08 19:45:22;;;;;;;;;;;;;;;2.72;76.68;98201.00;4973593;28;19918;-83
2021/12/08 19:47:51;;;;;;;;;;;;;;;2.72;76.43;98198.41;4956145;28;19940;-82
2021/12/08 19:50:18;;;;;;;;;;;;;;;2.72;76.34;98206.25;4972487;28;19918;-82
2021/12/08 19:52:43;;;;;;;;;;;;;;;2.76;76.38;98203.53;4971275;28;20302;-83
2021/12/08 19:55:09;;;;;;;;;;;;;;;2.70;76.10;98205.44;4955695;28;19918;-84
2021/12/08 19:57:34;;;;;;;;;;;;;;;2.70;76.13;98207.22;4955911;28;19938;-83
2021/12/08 19:59:59;;;;;;;;;;;;;;;2.67;76.01;98213.41;4973489;28;19956;-83
2021/12/08 20:02:26;;;;;;;;;;;;;;;2.70;75.92;98199.38;4973295;28;20120;-82
2021/12/08 20:04:51;;;;;;;;;;;;;;;2.68;75.77;98199.44;4973480;28;20432;-82
2021/12/08 20:07:17;;;;;;;;;;;;;;;2.72;75.90;98192.31;4972029;28;20004;-83
2021/12/08 20:09:42;;;;;;;;;;;;;;;2.67;75.81;98197.72;4973136;28;19926;-82
2021/12/08 20:12:07;;;;;;;;;;;;;;;2.71;75.81;98207.19;4973267;28;20051;-83
2021/12/08 20:14:33;;;;;;;;;;;;;;;2.71;75.68;98208.91;4972908;28;19918;-83
2021/12/08 20:17:00;;;;;;;;;;;;;;;2.69;75.41;98208.13;4955529;28;20005;-83
2021/12/08 20:19:26;;;;;;;;;;;;;;;2.69;75.57;98219.44;4954467;28;19925;-83
2021/12/08 20:21:53;;;;;;;;;;;;;;;2.71;75.29;98220.25;4971848;28;19918;-82